Time;durP1;ratioP1;P1;durP2;ratioP2;P2;SDS_P1;SDS_P2;PMS_P1;PMS_P2;Temp;Humidity;BMP_temperature;BMP_pressure;BME280_temperature;BME280_humidity;BME280_pressure;Samples;Min_cycle;Max_cycle;Signal;HPM_P1;HPM_P2
2021/10/17 00:00:33;;;;;;;11.02;6.25;;;9.30;99.90;;;;;;5067930;28;20494;-70
2021/10/17 00:03:37;;;;;;;11.68;6.70;;;9.30;99.90;;;;;;5062699;28;20047;-69
2021/10/17 00:06:41;;;;;;;12.60;7.18;;;9.30;99.90;;;;;;5063552;28;20383;-70
2021/10/17 00:09:45;;;;;;;11.88;6.55;;;9.20;99.90;;;;;;5060612;28;20051;-70
2021/10/17 00:12:49;;;;;;;14.30;7.57;;;9.10;99.90;;;;;;5060914;28;20040;-70
2021/10/17 00:15:53;;;;;;;12.63;7.35;;;9.00;99.90;;;;;;5064172;28;20039;-70
2021/10/17 00:18:57;;;;;;;10.30;7.00;;;9.00;99.90;;;;;;5064369;28;20047;-70
2021/10/17 00:22:03;;;;;;;12.15;6.07;;;9.00;99.90;;;;;;5060573;28;20072;-69
2021/10/17 00:25:09;;;;;;;20.10;7.20;;;8.90;99.90;;;;;;5061525;28;20043;-70
2021/10/17 00:28:13;;;;;;;15.25;8.55;;;8.80;99.90;;;;;;5060109;28;20040;-69
2021/10/17 00:31:23;;;;;;;14.00;9.40;;;9.00;99.90;;;;;;5059600;28;20056;-69
2021/10/17 00:34:28;;;;;;;11.82;7.43;;;9.10;99.90;;;;;;5060807;28;20103;-70
2021/10/17 00:37:33;;;;;;;11.48;8.38;;;9.00;99.90;;;;;;5059829;28;20043;-69
2021/10/17 00:40:38;;;;;;;11.63;7.53;;;8.70;99.90;;;;;;5064583;28;20048;-70
2021/10/17 00:43:42;;;;;;;11.80;7.68;;;8.70;99.90;;;;;;5064253;28;20051;-70
2021/10/17 00:46:46;;;;;;;12.43;8.38;;;8.70;99.90;;;;;;5064533;28;20051;-70
2021/10/17 00:49:50;;;;;;;15.25;8.80;;;8.60;99.90;;;;;;5062527;28;20387;-69
2021/10/17 00:52:54;;;;;;;22.63;9.50;;;8.70;99.90;;;;;;5066697;28;20048;-69
2021/10/17 00:56:00;;;;;;;12.65;8.35;;;8.80;99.90;;;;;;5067825;28;20035;-71
2021/10/17 00:59:04;;;;;;;13.15;8.35;;;8.90;99.90;;;;;;5071300;28;20036;-70
2021/10/17 01:02:08;;;;;;;12.88;8.23;;;9.00;99.90;;;;;;5067394;28;20040;-70
2021/10/17 01:05:16;;;;;;;13.70;7.93;;;9.20;99.90;;;;;;5061538;28;20044;-70
2021/10/17 01:08:21;;;;;;;13.35;8.25;;;9.40;99.90;;;;;;5063994;28;20497;-70
2021/10/17 01:11:44;;;;;;;13.20;7.82;;;9.30;99.90;;;;;;5066909;28;20044;-70
2021/10/17 01:14:50;;;;;;;13.60;7.75;;;9.10;99.90;;;;;;5061893;28;20038;-70
2021/10/17 01:17:54;;;;;;;11.85;8.20;;;9.00;99.90;;;;;;5069116;28;20047;-70
2021/10/17 01:21:00;;;;;;;13.07;8.27;;;8.90;99.90;;;;;;5061302;28;20040;-70
2021/10/17 01:24:06;;;;;;;12.07;8.20;;;8.90;99.90;;;;;;5063641;28;20482;-70
2021/10/17 01:27:10;;;;;;;14.23;9.13;;;8.90;99.90;;;;;;5062483;28;20044;-70
2021/10/17 01:30:16;;;;;;;14.38;8.90;;;8.90;99.90;;;;;;5063837;28;20086;-70
2021/10/17 01:33:22;;;;;;;13.05;8.75;;;8.80;99.90;;;;;;5072408;28;20040;-69
2021/10/17 01:36:26;;;;;;;11.18;8.23;;;8.70;99.90;;;;;;5066896;28;20044;-70
2021/10/17 01:39:32;;;;;;;15.55;8.85;;;8.60;99.90;;;;;;5068575;28;20047;-70
2021/10/17 01:42:36;;;;;;;14.70;8.35;;;8.50;99.90;;;;;;5070375;28;20047;-70
2021/10/17 01:45:40;;;;;;;13.63;8.73;;;8.40;99.90;;;;;;5061111;28;20043;-70
2021/10/17 01:48:45;;;;;;;13.27;7.68;;;8.30;99.90;;;;;;5066888;28;20508;-70
2021/10/17 01:51:49;;;;;;;12.25;7.60;;;8.30;99.90;;;;;;5071940;28;20054;-70
2021/10/17 01:54:54;;;;;;;14.13;7.40;;;8.20;99.90;;;;;;5064550;28;20044;-70
2021/10/17 01:58:00;;;;;;;12.23;7.13;;;8.10;99.90;;;;;;5062622;28;20040;-70
2021/10/17 02:01:06;;;;;;;12.13;7.10;;;8.10;99.90;;;;;;5062268;28;20495;-70
2021/10/17 02:04:11;;;;;;;11.73;6.43;;;8.00;99.90;;;;;;5065518;28;20048;-70
2021/10/17 02:07:15;;;;;;;13.63;7.53;;;8.00;99.90;;;;;;5061404;28;20497;-69
2021/10/17 02:10:20;;;;;;;15.65;7.57;;;7.90;99.90;;;;;;5066144;28;20408;-69
2021/10/17 02:13:25;;;;;;;12.77;7.68;;;7.80;99.90;;;;;;5070461;28;20051;-70
2021/10/17 02:16:29;;;;;;;10.52;7.03;;;7.70;99.90;;;;;;5068140;28;20043;-69
2021/10/17 02:19:33;;;;;;;10.70;6.43;;;7.70;99.90;;;;;;5060860;28;20040;-70
2021/10/17 02:22:40;;;;;;;13.95;7.50;;;7.70;99.90;;;;;;5066806;28;20052;-70
2021/10/17 02:25:45;;;;;;;11.18;6.93;;;7.70;99.90;;;;;;5066338;28;20395;-70
2021/10/17 02:28:48;;;;;;;10.63;6.65;;;7.70;99.90;;;;;;5060963;28;20064;-70
2021/10/17 02:31:58;;;;;;;10.23;6.25;;;7.80;99.90;;;;;;5069591;28;20051;-70
2021/10/17 02:35:03;;;;;;;10.40;6.18;;;7.80;99.90;;;;;;5065283;28;20051;-69
2021/10/17 02:38:08;;;;;;;11.60;8.07;;;7.80;99.90;;;;;;5063479;28;20028;-70
2021/10/17 02:41:13;;;;;;;11.25;7.30;;;7.90;99.90;;;;;;5063909;28;20047;-70
2021/10/17 02:44:18;;;;;;;12.02;7.18;;;7.90;99.90;;;;;;5059246;28;20051;-70
2021/10/17 02:47:22;;;;;;;9.43;6.47;;;7.90;99.90;;;;;;5064247;28;20040;-69
2021/10/17 02:50:25;;;;;;;10.98;7.30;;;7.90;99.90;;;;;;5059438;28;20040;-70
2021/10/17 02:53:30;;;;;;;13.23;7.50;;;7.80;99.90;;;;;;5062072;28;20056;-70
2021/10/17 02:56:34;;;;;;;10.00;6.43;;;7.80;99.90;;;;;;5064862;28;20047;-70
2021/10/17 02:59:38;;;;;;;13.98;7.40;;;7.80;99.90;;;;;;5066327;28;20052;-70
2021/10/17 03:02:42;;;;;;;10.63;7.28;;;7.80;99.90;;;;;;5070386;28;20107;-69
2021/10/17 03:05:46;;;;;;;9.10;6.10;;;7.70;99.90;;;;;;5061828;28;20055;-70
2021/10/17 03:08:50;;;;;;;10.25;6.18;;;7.60;99.90;;;;;;5057286;28;20037;-69
2021/10/17 03:11:54;;;;;;;9.23;6.05;;;7.60;99.90;;;;;;5056289;28;20051;-70
2021/10/17 03:14:59;;;;;;;9.80;5.75;;;7.50;99.90;;;;;;5063437;28;20375;-70
2021/10/17 03:18:03;;;;;;;10.85;6.90;;;7.50;99.90;;;;;;5054422;28;20024;-70
2021/10/17 03:21:08;;;;;;;11.75;6.82;;;7.50;99.90;;;;;;5062191;28;20047;-69
2021/10/17 03:24:13;;;;;;;11.70;6.47;;;7.40;99.90;;;;;;5057671;28;20056;-70
2021/10/17 03:27:19;;;;;;;10.50;7.00;;;7.40;99.90;;;;;;5057537;28;20051;-69
2021/10/17 03:30:29;;;;;;;13.60;9.20;;;7.30;99.90;;;;;;5058564;28;20535;-70
2021/10/17 03:33:35;;;;;;;10.20;6.75;;;7.30;99.90;;;;;;5059327;28;20044;-69
2021/10/17 03:36:44;;;;;;;16.40;9.40;;;7.30;99.90;;;;;;5059717;28;20597;-69
2021/10/17 03:39:48;;;;;;;14.18;10.05;;;7.40;99.90;;;;;;5062335;28;20052;-70
2021/10/17 03:42:54;;;;;;;15.30;8.50;;;7.40;99.90;;;;;;5059630;28;20403;-70
2021/10/17 03:45:58;;;;;;;11.18;7.53;;;7.40;99.90;;;;;;5065101;28;20269;-70
2021/10/17 03:49:07;;;;;;;13.00;7.88;;;7.30;99.90;;;;;;5058828;28;20066;-69
2021/10/17 03:52:12;;;;;;;12.57;7.32;;;7.30;99.90;;;;;;5058379;28;20039;-69
2021/10/17 03:55:16;;;;;;;13.90;8.27;;;7.20;99.90;;;;;;5056953;28;20391;-70
2021/10/17 03:58:20;;;;;;;12.02;7.25;;;7.30;99.90;;;;;;5060552;28;20051;-70
2021/10/17 04:01:25;;;;;;;13.27;7.70;;;7.30;99.90;;;;;;5063856;28;20516;-70
2021/10/17 04:04:30;;;;;;;10.82;6.25;;;7.30;99.90;;;;;;5063685;28;20047;-70
2021/10/17 04:07:36;;;;;;;11.80;6.63;;;7.30;99.90;;;;;;5055965;28;20039;-70
2021/10/17 04:10:41;;;;;;;11.50;7.40;;;7.30;99.90;;;;;;5064915;28;20043;-70
2021/10/17 04:13:44;;;;;;;12.60;7.45;;;7.30;99.90;;;;;;5065658;28;20493;-70
2021/10/17 04:16:49;;;;;;;11.43;6.60;;;7.30;99.90;;;;;;5058796;28;20604;-70
2021/10/17 04:19:53;;;;;;;10.20;6.57;;;7.20;99.90;;;;;;5062722;28;20051;-70
2021/10/17 04:22:58;;;;;;;10.60;6.32;;;7.20;99.90;;;;;;5059593;28;20048;-69
2021/10/17 04:26:04;;;;;;;10.45;6.85;;;7.10;99.90;;;;;;5055662;28;20047;-70
2021/10/17 04:29:12;;;;;;;13.73;8.25;;;7.00;99.90;;;;;;5056346;28;20044;-70
2021/10/17 04:32:16;;;;;;;14.27;8.50;;;7.00;99.90;;;;;;5061693;28;20043;-69
2021/10/17 04:35:21;;;;;;;13.10;8.52;;;7.10;99.90;;;;;;5057538;28;20490;-70
2021/10/17 04:38:25;;;;;;;15.75;9.32;;;7.00;99.90;;;;;;5056136;28;20040;-70
2021/10/17 04:41:29;;;;;;;15.48;9.77;;;7.00;99.90;;;;;;5056724;28;20040;-70
2021/10/17 04:44:34;;;;;;;19.35;9.98;;;7.10;99.90;;;;;;5059389;28;20047;-69
2021/10/17 04:47:38;;;;;;;15.50;9.77;;;7.10;99.90;;;;;;5065947;28;20039;-70
2021/10/17 04:50:43;;;;;;;17.98;10.02;;;7.10;99.90;;;;;;5066472;28;20505;-70
2021/10/17 04:53:47;;;;;;;15.00;8.98;;;7.10;99.90;;;;;;5060241;28;20052;-69
2021/10/17 04:56:53;;;;;;;11.75;8.32;;;7.10;99.90;;;;;;5060578;28;20055;-70
2021/10/17 05:00:00;;;;;;;16.13;9.90;;;7.00;99.90;;;;;;5057225;28;20513;-69
2021/10/17 05:03:04;;;;;;;16.95;8.75;;;7.10;99.90;;;;;;5059989;28;20039;-69
2021/10/17 05:06:12;;;;;;;16.75;7.63;;;7.10;99.90;;;;;;5062031;28;20060;-70
2021/10/17 05:09:16;;;;;;;12.30;6.72;;;7.10;99.90;;;;;;5066160;28;20043;-69
2021/10/17 05:12:20;;;;;;;9.65;6.93;;;7.10;99.90;;;;;;5062404;28;20044;-70
2021/10/17 05:15:24;;;;;;;10.40;7.47;;;7.10;99.90;;;;;;5056919;28;20033;-70
2021/10/17 05:18:29;;;;;;;12.82;7.75;;;7.10;99.90;;;;;;5060240;28;20051;-70
2021/10/17 05:21:37;;;;;;;12.07;7.35;;;6.90;99.90;;;;;;5063866;28;20040;-70
2021/10/17 05:24:41;;;;;;;13.05;8.32;;;6.90;99.90;;;;;;5052859;28;20056;-70
2021/10/17 05:27:45;;;;;;;13.65;8.27;;;6.80;99.90;;;;;;5064459;28;20527;-69
2021/10/17 05:30:49;;;;;;;16.83;8.45;;;6.70;99.90;;;;;;5060522;28;20051;-70
2021/10/17 05:33:54;;;;;;;12.88;8.13;;;6.70;99.90;;;;;;5057716;28;20040;-70
2021/10/17 05:36:59;;;;;;;11.18;8.15;;;6.70;99.90;;;;;;5059663;28;20403;-70
2021/10/17 05:40:04;;;;;;;11.43;7.35;;;6.70;99.90;;;;;;5060358;28;20498;-70
2021/10/17 05:43:12;;;;;;;12.07;7.40;;;6.80;99.90;;;;;;5067501;28;20052;-70
2021/10/17 05:46:17;;;;;;;11.57;7.95;;;6.80;99.90;;;;;;5063409;28;20043;-70
2021/10/17 05:49:21;;;;;;;15.02;8.93;;;6.70;99.90;;;;;;5065572;28;20048;-70
2021/10/17 05:52:26;;;;;;;16.58;8.43;;;6.50;99.90;;;;;;5069277;28;20036;-70
2021/10/17 05:55:30;;;;;;;14.02;9.27;;;6.50;99.90;;;;;;5064027;28;20434;-70
2021/10/17 05:58:34;;;;;;;15.95;8.38;;;6.50;99.90;;;;;;5060134;28;20048;-70
2021/10/17 06:01:38;;;;;;;19.50;8.57;;;6.50;99.90;;;;;;5067707;28;20056;-70
2021/10/17 06:04:54;;;;;;;10.60;7.20;;;6.50;99.90;;;;;;5065636;28;20040;-70
2021/10/17 06:08:01;;;;;;;13.23;8.60;;;6.60;99.90;;;;;;5054761;28;20047;-70
2021/10/17 06:11:07;;;;;;;16.27;8.30;;;6.70;99.90;;;;;;5063493;28;20044;-70
2021/10/17 06:14:10;;;;;;;12.90;6.63;;;8.20;99.90;;;;;;5061244;28;20044;-70
2021/10/17 06:17:15;;;;;;;12.82;5.75;;;11.40;99.90;;;;;;5060499;28;20498;-70
2021/10/17 06:20:19;;;;;;;8.13;5.80;;;14.50;99.90;;;;;;5066088;28;20043;-70
2021/10/17 06:23:25;;;;;;;11.52;5.30;;;16.20;99.90;;;;;;5059585;28;20048;-70
2021/10/17 06:26:30;;;;;;;9.63;5.45;;;18.30;98.40;;;;;;5068469;28;20036;-70
2021/10/17 06:29:34;;;;;;;7.13;4.70;;;19.80;95.50;;;;;;5053802;28;20111;-70
2021/10/17 06:32:41;;;;;;;9.30;5.03;;;21.30;92.60;;;;;;5059564;28;20043;-70
2021/10/17 06:35:48;;;;;;;7.30;4.90;;;22.50;90.10;;;;;;5064104;28;20055;-71
2021/10/17 06:38:53;;;;;;;10.63;4.65;;;23.30;89.60;;;;;;5069098;28;20055;-71
2021/10/17 06:41:58;;;;;;;6.38;4.65;;;24.10;84.90;;;;;;5062929;28;20047;-71
2021/10/17 06:45:19;;;;;;;;;;;24.20;80.50;;;;;;5062337;28;20519;-71
2021/10/17 06:48:25;;;;;;;8.90;4.60;;;24.50;80.60;;;;;;5056648;28;19916;-71
2021/10/17 06:51:30;;;;;;;8.52;4.57;;;24.20;78.10;;;;;;5058500;28;20044;-71
2021/10/17 06:54:37;;;;;;;8.80;4.57;;;25.00;78.60;;;;;;5061999;28;20040;-71
2021/10/17 06:57:42;;;;;;;7.65;4.75;;;25.20;76.70;;;;;;5059676;28;20036;-71
2021/10/17 07:00:47;;;;;;;8.13;4.30;;;25.40;76.00;;;;;;5060386;28;20051;-71
2021/10/17 07:03:51;;;;;;;8.85;4.30;;;26.10;74.90;;;;;;5057950;28;20047;-71
2021/10/17 07:06:57;;;;;;;6.45;4.47;;;26.40;72.90;;;;;;5060356;28;20032;-71
2021/10/17 07:10:03;;;;;;;6.53;4.75;;;25.30;73.00;;;;;;5067035;28;20078;-71
2021/10/17 07:13:27;;;;;;;6.47;5.07;;;25.10;74.00;;;;;;5060218;28;20044;-71
2021/10/17 07:16:34;;;;;;;8.32;5.50;;;25.60;72.60;;;;;;5058350;28;20483;-71
2021/10/17 07:19:38;;;;;;;7.25;4.90;;;23.30;73.80;;;;;;5064559;28;20056;-71
2021/10/17 07:22:44;;;;;;;6.80;5.10;;;23.70;75.00;;;;;;5067082;28;20055;-71
2021/10/17 07:25:48;;;;;;;6.82;4.38;;;25.20;73.10;;;;;;5056241;28;20055;-71
2021/10/17 07:28:52;;;;;;;4.60;3.88;;;25.40;71.60;;;;;;5047174;28;20040;-71
2021/10/17 07:31:56;;;;;;;4.97;4.10;;;24.30;73.30;;;;;;5061308;28;20064;-71
2021/10/17 07:35:01;;;;;;;5.82;4.82;;;22.30;75.00;;;;;;5060267;28;20044;-71
2021/10/17 07:38:11;;;;;;;5.15;3.85;;;24.70;74.90;;;;;;5064046;28;20052;-71
2021/10/17 07:41:16;;;;;;;4.88;4.30;;;23.80;72.50;;;;;;5057029;28;20414;-71
2021/10/17 07:44:20;;;;;;;4.95;3.90;;;23.70;75.80;;;;;;5056013;28;20502;-71
2021/10/17 07:47:43;;;;;;;6.60;4.70;;;25.10;73.10;;;;;;5061192;28;20040;-71
2021/10/17 07:50:49;;;;;;;8.73;5.15;;;22.80;73.80;;;;;;5060205;28;20043;-71
2021/10/17 07:53:54;;;;;;;6.07;4.68;;;20.80;78.10;;;;;;5066410;28;20048;-71
2021/10/17 07:57:00;;;;;;;5.82;4.35;;;21.10;78.50;;;;;;5065363;28;20039;-71
2021/10/17 08:00:09;;;;;;;6.15;4.70;;;21.10;78.50;;;;;;5061638;28;20047;-71
2021/10/17 08:03:21;;;;;;;5.40;4.00;;;24.20;75.40;;;;;;5063667;28;20040;-71
2021/10/17 08:06:36;;;;;;;5.63;4.40;;;26.30;71.40;;;;;;5065602;28;20055;-71
2021/10/17 08:09:41;;;;;;;7.65;4.35;;;28.50;70.40;;;;;;5062600;28;20044;-71
2021/10/17 08:12:46;;;;;;;5.60;3.92;;;29.60;67.50;;;;;;5063401;28;20044;-72
2021/10/17 08:15:51;;;;;;;5.18;4.35;;;28.60;66.60;;;;;;5058691;28;20124;-71
2021/10/17 08:19:05;;;;;;;6.20;4.20;;;27.70;66.80;;;;;;5059660;28;20044;-72
2021/10/17 08:22:08;;;;;;;7.20;4.53;;;27.50;67.40;;;;;;5057929;28;20055;-71
2021/10/17 08:25:14;;;;;;;5.15;4.65;;;24.50;68.30;;;;;;5061792;28;20379;-71
2021/10/17 08:28:18;;;;;;;8.27;4.75;;;23.80;71.50;;;;;;5051678;28;20051;-71
2021/10/17 08:31:23;;;;;;;5.95;4.57;;;23.40;72.00;;;;;;5055776;28;20086;-71
2021/10/17 08:34:27;;;;;;;9.23;5.10;;;22.50;73.60;;;;;;5055129;28;20052;-71
2021/10/17 08:37:33;;;;;;;9.45;5.72;;;23.80;72.30;;;;;;5055092;28;20040;-71
2021/10/17 08:40:56;;;;;;;6.60;4.95;;;24.20;72.50;;;;;;5060533;28;20052;-71
2021/10/17 08:44:19;;;;;;;6.20;5.28;;;27.00;68.60;;;;;;5058067;28;20056;-71
2021/10/17 08:47:44;;;;;;;6.85;4.50;;;26.20;68.60;;;;;;5060247;28;20051;-71
2021/10/17 08:50:51;;;;;;;6.57;4.75;;;26.40;68.30;;;;;;5058757;28;20048;-72
2021/10/17 08:53:54;;;;;;;14.32;5.47;;;26.00;68.70;;;;;;5064460;28;20047;-71
2021/10/17 08:57:02;;;;;;;8.10;5.45;;;26.80;67.30;;;;;;5070252;28;20056;-71
2021/10/17 09:00:28;;;;;;;8.30;5.15;;;26.70;68.30;;;;;;5057433;28;20055;-71
2021/10/17 09:03:33;;;;;;;8.75;4.55;;;28.30;66.00;;;;;;5063592;28;20055;-71
2021/10/17 09:06:40;;;;;;;8.98;4.75;;;29.30;65.00;;;;;;5057174;28;20115;-72
2021/10/17 09:10:05;;;;;;;5.15;4.30;;;28.20;65.20;;;;;;5063999;28;20051;-72
2021/10/17 09:13:15;;;;;;;6.75;4.13;;;29.10;64.50;;;;;;5063265;28;20509;-72
2021/10/17 09:16:23;;;;;;;7.80;4.47;;;29.50;63.40;;;;;;5072469;28;20392;-72
2021/10/17 09:19:29;;;;;;;5.55;4.10;;;31.40;62.90;;;;;;5067857;28;20502;-71
2021/10/17 09:22:33;;;;;;;10.13;3.83;;;32.00;61.20;;;;;;5062230;28;20044;-71
2021/10/17 09:25:37;;;;;;;4.40;4.00;;;33.00;60.80;;;;;;5061183;28;20044;-71
2021/10/17 09:28:42;;;;;;;5.55;4.10;;;30.40;61.20;;;;;;5069537;28;20047;-71
2021/10/17 09:31:53;;;;;;;6.90;4.75;;;28.00;63.90;;;;;;5063574;28;20588;-71
2021/10/17 09:34:59;;;;;;;5.18;4.22;;;26.90;64.80;;;;;;5063678;28;20532;-71
2021/10/17 09:38:03;;;;;;;5.00;3.53;;;27.20;65.70;;;;;;5069176;28;20399;-71
2021/10/17 09:41:34;;;;;;;5.97;4.10;;;28.30;64.50;;;;;;5062761;28;20043;-72
2021/10/17 09:44:41;;;;;;;4.25;2.85;;;31.00;62.50;;;;;;5056631;28;20509;-72
2021/10/17 09:47:45;;;;;;;5.50;3.88;;;31.50;61.20;;;;;;5065434;28;20068;-72
2021/10/17 09:51:00;;;;;;;6.00;4.53;;;33.50;59.20;;;;;;5067915;28;20055;-72
2021/10/17 09:54:06;;;;;;;7.70;3.92;;;31.80;59.10;;;;;;5060789;28;20052;-72
2021/10/17 09:57:10;;;;;;;5.97;4.22;;;28.90;61.20;;;;;;5063117;28;20391;-72
2021/10/17 10:00:14;;;;;;;7.25;3.92;;;30.70;61.10;;;;;;5065374;28;20059;-72
2021/10/17 10:03:20;;;;;;;6.65;3.60;;;31.60;60.40;;;;;;5060630;28;20052;-72
2021/10/17 10:06:25;;;;;;;4.75;4.05;;;34.00;58.70;;;;;;5058357;28;20048;-72
2021/10/17 10:09:31;;;;;;;9.60;5.50;;;34.50;57.00;;;;;;5067147;28;20545;-71
2021/10/17 10:12:38;;;;;;;6.90;4.22;;;29.30;58.90;;;;;;5067347;28;20427;-71
2021/10/17 10:15:44;;;;;;;7.07;4.72;;;31.90;58.20;;;;;;5056499;28;20052;-72
2021/10/17 10:18:58;;;;;;;7.25;4.22;;;31.40;58.20;;;;;;5067908;28;20502;-72
2021/10/17 10:22:02;;;;;;;8.43;4.13;;;30.40;58.50;;;;;;5069072;28;20418;-72
2021/10/17 10:25:07;;;;;;;6.60;4.07;;;33.70;58.00;;;;;;5065598;28;20051;-72
2021/10/17 10:28:13;;;;;;;7.90;4.18;;;32.90;56.10;;;;;;5067942;28;20063;-72
2021/10/17 10:31:45;;;;;;;5.45;3.38;;;34.00;56.70;;;;;;5063752;28;20052;-72
2021/10/17 10:34:51;;;;;;;4.03;2.63;;;34.10;55.50;;;;;;5060904;28;20047;-72
2021/10/17 10:37:56;;;;;;;6.07;3.50;;;35.60;54.60;;;;;;5061578;28;20407;-73
2021/10/17 10:41:17;;;;;;;4.10;3.05;;;36.30;54.30;;;;;;5067721;28;20115;-72
2021/10/17 10:44:27;;;;;;;3.78;2.65;;;31.20;55.80;;;;;;5065435;28;20044;-72
2021/10/17 10:47:31;;;;;;;5.60;3.28;;;32.70;55.40;;;;;;5065842;28;20051;-72
2021/10/17 10:50:41;;;;;;;4.72;2.33;;;32.40;54.80;;;;;;5065856;28;20414;-70
2021/10/17 10:53:51;;;;;;;2.67;1.97;;;34.00;55.30;;;;;;5061664;28;20059;-72
2021/10/17 10:56:57;;;;;;;5.50;2.42;;;36.20;53.50;;;;;;5062484;28;20043;-72
2021/10/17 11:00:12;;;;;;;3.72;2.30;;;36.00;52.00;;;;;;5058852;28;20494;-72
2021/10/17 11:03:17;;;;;;;4.18;2.38;;;32.80;52.70;;;;;;5067539;28;20040;-72
2021/10/17 11:06:22;;;;;;;3.60;2.05;;;34.90;53.70;;;;;;5064800;28;20039;-72
2021/10/17 11:09:26;;;;;;;2.20;1.77;;;37.20;52.80;;;;;;5051789;28;20047;-71
2021/10/17 11:12:39;;;;;;;3.15;1.83;;;37.70;50.30;;;;;;5062062;28;20056;-71
2021/10/17 11:15:47;;;;;;;2.28;1.75;;;39.10;51.20;;;;;;5067856;28;20055;-72
2021/10/17 11:18:58;;;;;;;3.13;1.70;;;35.50;51.00;;;;;;5060526;28;20047;-72
2021/10/17 11:22:04;;;;;;;1.63;1.50;;;35.60;51.60;;;;;;5056281;28;20233;-72
2021/10/17 11:25:17;;;;;;;3.65;1.20;;;37.40;50.60;;;;;;5067921;28;20055;-72
2021/10/17 11:28:23;;;;;;;1.60;1.50;;;38.70;49.40;;;;;;5061169;28;20427;-71
2021/10/17 11:31:29;;;;;;;2.35;1.85;;;40.20;48.20;;;;;;5061068;28;20048;-71
2021/10/17 11:34:34;;;;;;;2.22;1.90;;;36.40;49.30;;;;;;5065507;28;20253;-72
2021/10/17 11:37:39;;;;;;;3.35;2.53;;;34.80;50.50;;;;;;5058755;28;20051;-72
2021/10/17 11:40:44;;;;;;;3.72;1.70;;;37.20;50.90;;;;;;5065673;28;20552;-70
2021/10/17 11:43:52;;;;;;;1.55;1.40;;;35.50;49.60;;;;;;5059676;28;20136;-71
2021/10/17 11:47:01;;;;;;;3.58;1.90;;;35.60;51.60;;;;;;5063492;28;20390;-73
2021/10/17 11:50:05;;;;;;;1.65;1.45;;;34.20;50.40;;;;;;5060223;28;20036;-71
2021/10/17 11:53:10;;;;;;;1.80;1.27;;;36.40;50.70;;;;;;5063622;28;20309;-70
2021/10/17 11:56:21;;;;;;;2.08;1.30;;;38.50;49.10;;;;;;5062823;28;20494;-70
2021/10/17 11:59:25;;;;;;;1.80;1.50;;;40.10;47.60;;;;;;5067163;28;20056;-73
2021/10/17 12:02:37;;;;;;;2.42;1.92;;;40.80;47.80;;;;;;5059997;28;20387;-72
2021/10/17 12:05:44;;;;;;;2.00;1.40;;;40.50;47.20;;;;;;5058525;28;20052;-72
2021/10/17 12:08:56;;;;;;;4.35;1.55;;;34.50;48.80;;;;;;5066030;28;20066;-72
2021/10/17 12:12:01;;;;;;;3.47;1.40;;;34.80;48.50;;;;;;5064339;28;20039;-72
2021/10/17 12:15:08;;;;;;;1.58;1.45;;;36.30;48.50;;;;;;5064342;28;20047;-72
2021/10/17 12:18:12;;;;;;;4.03;1.55;;;34.30;48.50;;;;;;5059955;28;20043;-72
2021/10/17 12:21:19;;;;;;;2.55;1.20;;;31.90;49.20;;;;;;5055341;28;20036;-72
2021/10/17 12:24:23;;;;;;;2.63;1.40;;;32.60;49.70;;;;;;5058408;28;20341;-72
2021/10/17 12:27:48;;;;;;;3.88;1.42;;;35.50;49.20;;;;;;5057883;28;20055;-72
2021/10/17 12:30:55;;;;;;;1.80;1.30;;;37.60;47.00;;;;;;5063947;28;20047;-72
2021/10/17 12:34:00;;;;;;;1.98;1.48;;;36.60;48.40;;;;;;5058581;28;20051;-72
2021/10/17 12:37:04;;;;;;;2.38;1.50;;;32.50;49.30;;;;;;5063580;28;20047;-71
2021/10/17 12:40:09;;;;;;;4.45;1.50;;;34.80;50.40;;;;;;5064912;28;20044;-72
2021/10/17 12:43:13;;;;;;;2.50;2.10;;;37.10;48.90;;;;;;5062214;28;20051;-72
2021/10/17 12:46:21;;;;;;;1.85;1.35;;;38.60;47.70;;;;;;5062942;28;20035;-72
2021/10/17 12:49:37;;;;;;;1.75;1.50;;;40.00;47.00;;;;;;5063078;28;20336;-73
2021/10/17 12:52:51;;;;;;;2.75;1.38;;;41.10;45.90;;;;;;5062955;28;20043;-71
2021/10/17 12:55:57;;;;;;;8.90;1.92;;;40.90;45.70;;;;;;5065691;28;20487;-73
2021/10/17 12:59:13;;;;;;;1.80;1.13;;;40.00;46.10;;;;;;5072193;28;20052;-73
2021/10/17 13:02:17;;;;;;;3.33;1.30;;;40.10;47.50;;;;;;5071746;28;20376;-73
2021/10/17 13:05:25;;;;;;;17.73;2.00;;;40.40;46.10;;;;;;5061722;28;20047;-73
2021/10/17 13:08:29;;;;;;;2.05;1.42;;;38.80;46.20;;;;;;5067923;28;20060;-72
2021/10/17 13:11:36;;;;;;;2.05;1.52;;;38.20;47.20;;;;;;5070630;28;20055;-72
2021/10/17 13:15:00;;;;;;;1.92;1.30;;;38.20;46.60;;;;;;5065958;28;20040;-72
2021/10/17 13:18:06;;;;;;;1.20;1.10;;;35.60;46.20;;;;;;5063413;28;20036;-72
2021/10/17 13:21:10;;;;;;;1.70;1.40;;;37.40;46.50;;;;;;5064685;28;20391;-71
2021/10/17 13:24:14;;;;;;;1.95;1.40;;;36.30;47.00;;;;;;5062917;28;20112;-71
2021/10/17 13:27:18;;;;;;;1.52;1.20;;;31.60;49.40;;;;;;5061789;28;20052;-72
2021/10/17 13:30:23;;;;;;;1.80;1.30;;;31.00;51.10;;;;;;5061210;28;20128;-72
2021/10/17 13:33:27;;;;;;;2.47;1.52;;;32.70;50.40;;;;;;5067889;28;20052;-72
2021/10/17 13:36:31;;;;;;;1.70;1.30;;;30.30;51.10;;;;;;5067232;28;20115;-72
2021/10/17 13:39:35;;;;;;;1.80;1.15;;;30.60;52.50;;;;;;5068347;28;20043;-72
2021/10/17 13:42:40;;;;;;;3.40;1.40;;;31.40;51.60;;;;;;5063959;28;20422;-72
2021/10/17 13:45:44;;;;;;;6.47;1.67;;;32.70;50.20;;;;;;5065484;28;20060;-72
2021/10/17 13:48:48;;;;;;;4.43;1.55;;;29.70;50.70;;;;;;5066918;28;20051;-71
2021/10/17 13:51:53;;;;;;;2.13;1.42;;;27.90;53.90;;;;;;5061795;28;20047;-71
2021/10/17 13:54:57;;;;;;;3.55;1.38;;;26.80;56.00;;;;;;5062956;28;20514;-71
2021/10/17 13:58:01;;;;;;;2.95;1.38;;;28.20;54.00;;;;;;5067896;28;20039;-71
2021/10/17 14:01:06;;;;;;;2.30;1.30;;;27.90;54.00;;;;;;5065436;28;20040;-71
2021/10/17 14:04:09;;;;;;;4.25;1.73;;;28.20;54.70;;;;;;5060707;28;20040;-72
2021/10/17 14:07:14;;;;;;;2.40;1.38;;;28.20;54.30;;;;;;5067890;28;20110;-71
2021/10/17 14:10:19;;;;;;;2.38;1.30;;;27.90;54.70;;;;;;5063915;28;20040;-71
2021/10/17 14:13:23;;;;;;;2.33;1.27;;;29.40;54.00;;;;;;5060294;28;20060;-72
2021/10/17 14:16:27;;;;;;;3.05;1.30;;;30.70;52.80;;;;;;5065603;28;20040;-72
2021/10/17 14:19:32;;;;;;;1.52;1.38;;;31.80;52.00;;;;;;5060767;28;20044;-72
2021/10/17 14:22:36;;;;;;;1.80;1.17;;;32.80;51.40;;;;;;5062756;28;20044;-72
2021/10/17 14:25:40;;;;;;;1.48;1.20;;;33.00;50.40;;;;;;5067852;28;20056;-72
2021/10/17 14:28:44;;;;;;;2.47;1.90;;;32.80;50.30;;;;;;5066698;28;20060;-72
2021/10/17 14:31:49;;;;;;;1.10;1.00;;;33.20;50.00;;;;;;5065695;28;20249;-72
2021/10/17 14:34:53;;;;;;;1.60;1.50;;;33.40;50.60;;;;;;5068037;28;20119;-71
2021/10/17 14:37:57;;;;;;;1.88;1.40;;;33.30;49.90;;;;;;5063787;28;20048;-72
2021/10/17 14:41:01;;;;;;;4.03;1.15;;;33.10;50.20;;;;;;5069588;28;20044;-72
2021/10/17 14:44:06;;;;;;;1.35;1.15;;;32.60;50.10;;;;;;5066015;28;20055;-72
2021/10/17 14:47:10;;;;;;;2.33;1.42;;;32.10;51.20;;;;;;5070490;28;20387;-72
2021/10/17 14:50:15;;;;;;;3.15;1.92;;;32.10;51.20;;;;;;5058748;28;20039;-72
2021/10/17 14:53:20;;;;;;;2.55;1.58;;;32.10;50.70;;;;;;5063614;28;20217;-72
2021/10/17 14:56:24;;;;;;;4.88;4.05;;;31.70;51.40;;;;;;5059199;28;20052;-72
2021/10/17 14:59:28;;;;;;;2.20;1.50;;;31.60;51.50;;;;;;5064759;28;20047;-72
2021/10/17 15:02:33;;;;;;;13.70;10.43;;;31.40;52.20;;;;;;5068026;28;20063;-72
2021/10/17 15:05:38;;;;;;;13.73;9.95;;;31.50;52.40;;;;;;5065056;28;20440;-72
2021/10/17 15:08:42;;;;;;;9.93;7.32;;;31.10;52.00;;;;;;5067711;28;20048;-73
2021/10/17 15:11:47;;;;;;;2.88;1.60;;;31.10;52.60;;;;;;5058337;28;20051;-72
2021/10/17 15:14:51;;;;;;;2.22;1.55;;;30.80;53.20;;;;;;5060217;28;20067;-71
2021/10/17 15:17:56;;;;;;;2.58;2.25;;;30.40;53.50;;;;;;5049224;28;20044;-72
2021/10/17 15:21:00;;;;;;;1.77;1.50;;;29.80;54.00;;;;;;5055381;28;20513;-72
2021/10/17 15:24:04;;;;;;;3.78;1.60;;;29.20;54.40;;;;;;5064537;28;20043;-72
2021/10/17 15:27:09;;;;;;;2.45;1.85;;;28.60;55.20;;;;;;5058808;28;20056;-72
2021/10/17 15:30:13;;;;;;;4.13;1.60;;;27.90;55.60;;;;;;5061090;28;20031;-71
2021/10/17 15:33:19;;;;;;;4.72;1.98;;;27.30;56.70;;;;;;5056625;28;20044;-71
2021/10/17 15:36:24;;;;;;;2.17;1.83;;;26.50;57.10;;;;;;5064711;28;20047;-71
2021/10/17 15:39:28;;;;;;;2.30;1.67;;;25.80;58.30;;;;;;5062757;28;20047;-72
2021/10/17 15:42:35;;;;;;;2.53;1.85;;;24.90;59.30;;;;;;5062879;28;20525;-73
2021/10/17 15:45:40;;;;;;;2.13;1.40;;;24.10;60.80;;;;;;5064759;28;20059;-73
2021/10/17 15:48:44;;;;;;;2.42;1.67;;;23.40;62.10;;;;;;5062021;28;20051;-73
2021/10/17 15:51:48;;;;;;;4.53;2.20;;;23.10;62.60;;;;;;5058885;28;20510;-73
2021/10/17 15:54:52;;;;;;;2.42;1.52;;;22.90;63.00;;;;;;5069308;28;20396;-73
2021/10/17 15:57:56;;;;;;;3.95;2.20;;;22.60;63.40;;;;;;5063181;28;20490;-73
2021/10/17 16:01:01;;;;;;;4.55;2.60;;;22.40;64.10;;;;;;5064064;28;20521;-71
2021/10/17 16:04:07;;;;;;;2.65;1.90;;;22.10;65.60;;;;;;5069432;28;20043;-71
2021/10/17 16:07:13;;;;;;;2.10;1.67;;;21.70;65.50;;;;;;5065583;28;20415;-71
2021/10/17 16:10:17;;;;;;;3.78;2.10;;;21.40;66.50;;;;;;5062260;28;20047;-73